createdAt,value
2022-11-10T00:00:33.122Z,22.10
2022-11-10T00:03:04.967Z,22.10
2022-11-10T00:05:34.291Z,22.20
2022-11-10T00:08:06.058Z,22.20
2022-11-10T00:10:57.036Z,22.20
2022-11-10T00:13:28.084Z,22.20
2022-11-10T00:16:16.638Z,22.20
2022-11-10T00:18:45.756Z,22.20
2022-11-10T00:21:15.956Z,22.30
2022-11-10T00:23:45.236Z,22.30
2022-11-10T00:26:16.927Z,22.30
2022-11-10T00:28:45.945Z,22.30
2022-11-10T00:31:15.028Z,22.40
2022-11-10T00:33:46.246Z,22.40
2022-11-10T00:36:14.936Z,22.40
2022-11-10T00:38:43.685Z,22.50
2022-11-10T00:41:12.452Z,22.50
2022-11-10T00:43:41.208Z,22.60
2022-11-10T00:46:09.896Z,22.70
2022-11-10T00:48:38.651Z,22.70
2022-11-10T00:51:08.137Z,22.80
2022-11-10T00:53:36.767Z,22.80
2022-11-10T00:56:06.288Z,22.90
2022-11-10T00:58:34.943Z,23.00
2022-11-10T01:01:06.884Z,23.00
2022-11-10T01:03:36.764Z,23.00
2022-11-10T01:06:09.312Z,23.10
2022-11-10T01:08:39.078Z,23.20
2022-11-10T01:11:10.830Z,23.30
2022-11-10T01:13:39.676Z,23.30
2022-11-10T01:16:12.463Z,23.40
2022-11-10T01:18:41.556Z,23.50
2022-11-10T01:21:10.897Z,23.50
2022-11-10T01:23:39.916Z,23.60
2022-11-10T01:26:09.769Z,23.60
2022-11-10T01:28:39.000Z,23.70
2022-11-10T01:31:11.330Z,23.80
2022-11-10T01:33:40.453Z,23.80
2022-11-10T01:36:11.114Z,23.80
2022-11-10T01:38:42.387Z,23.90
2022-11-10T01:41:24.956Z,24.00
2022-11-10T01:43:56.393Z,24.00
2022-11-10T01:46:25.263Z,24.10
2022-11-10T01:48:57.519Z,24.10
2022-11-10T01:51:38.729Z,24.20
2022-11-10T01:54:12.095Z,24.20
2022-11-10T01:56:47.086Z,24.30
2022-11-10T01:59:20.430Z,24.40
2022-11-10T02:01:52.042Z,24.40
2022-11-10T02:04:23.171Z,24.40
2022-11-10T02:06:53.069Z,24.50
2022-11-10T02:09:22.592Z,24.60
2022-11-10T02:11:55.544Z,24.60
2022-11-10T02:14:24.648Z,24.70
2022-11-10T02:16:54.267Z,24.70
2022-11-10T02:19:27.254Z,24.80
2022-11-10T02:21:56.163Z,24.80
2022-11-10T02:24:25.682Z,24.80
2022-11-10T02:26:57.250Z,24.90
2022-11-10T02:29:27.124Z,25.00
2022-11-10T02:31:56.030Z,25.00
2022-11-10T02:34:25.217Z,25.00
2022-11-10T02:36:53.945Z,25.00
2022-11-10T02:39:22.762Z,25.00
2022-11-10T02:41:51.499Z,25.10
2022-11-10T02:44:20.294Z,25.10
2022-11-10T02:46:49.285Z,25.20
2022-11-10T02:49:17.999Z,25.20
2022-11-10T02:51:46.721Z,25.30
2022-11-10T02:54:15.428Z,25.30
2022-11-10T02:56:44.157Z,25.30
2022-11-10T02:59:12.898Z,25.40
2022-11-10T03:01:41.728Z,25.40
2022-11-10T03:04:10.589Z,25.40
2022-11-10T03:06:39.352Z,25.50
2022-11-10T03:09:09.135Z,25.50
2022-11-10T03:11:37.959Z,25.50
2022-11-10T03:14:06.681Z,25.60
2022-11-10T03:16:35.654Z,25.70
2022-11-10T03:19:04.479Z,25.70
2022-11-10T03:21:34.744Z,25.70
2022-11-10T03:24:03.462Z,25.70
2022-11-10T03:26:32.200Z,25.80
2022-11-10T03:29:00.890Z,25.80
2022-11-10T03:31:30.635Z,25.90
2022-11-10T03:33:59.385Z,25.90
2022-11-10T03:36:28.121Z,26.00
2022-11-10T03:38:58.122Z,26.00
2022-11-10T03:41:26.872Z,26.10
2022-11-10T03:43:55.705Z,26.10
2022-11-10T03:46:24.536Z,26.20
2022-11-10T03:48:53.784Z,26.30
2022-11-10T03:51:23.583Z,26.30
2022-11-10T03:53:52.467Z,26.40
2022-11-10T03:56:22.574Z,26.50
2022-11-10T03:58:51.313Z,26.50
2022-11-10T04:01:20.261Z,26.60
2022-11-10T04:03:51.460Z,26.70
2022-11-10T04:06:40.540Z,26.70
2022-11-10T04:09:10.052Z,26.80
2022-11-10T04:11:58.409Z,26.80
2022-11-10T04:14:46.860Z,26.90
2022-11-10T04:17:15.566Z,26.90
2022-11-10T04:19:44.242Z,26.90
2022-11-10T04:22:32.588Z,26.90
2022-11-10T04:25:01.430Z,27.00
2022-11-10T04:27:30.192Z,27.10
2022-11-10T04:29:58.927Z,27.10
2022-11-10T04:32:27.869Z,27.20
2022-11-10T04:34:56.754Z,27.20
2022-11-10T04:37:25.570Z,27.20
2022-11-10T04:39:54.209Z,27.40
2022-11-10T04:42:23.194Z,27.40
2022-11-10T04:44:51.921Z,27.50
2022-11-10T04:47:21.110Z,27.50
2022-11-10T04:49:50.245Z,27.60
2022-11-10T04:52:19.038Z,27.60
2022-11-10T04:54:50.789Z,27.60
2022-11-10T04:57:20.007Z,27.70
2022-11-10T04:59:48.973Z,27.70
2022-11-10T05:02:18.559Z,27.80
2022-11-10T05:04:48.437Z,27.90
2022-11-10T05:07:17.203Z,27.90
2022-11-10T05:09:45.896Z,27.90
2022-11-10T05:12:18.522Z,27.90
2022-11-10T05:14:50.749Z,27.90
2022-11-10T05:17:19.433Z,28.00
2022-11-10T05:19:48.423Z,28.00
2022-11-10T05:22:17.203Z,28.00
2022-11-10T05:24:45.929Z,28.10
2022-11-10T05:27:14.765Z,28.10
2022-11-10T05:29:43.680Z,28.10
2022-11-10T05:32:12.503Z,28.20
2022-11-10T05:34:41.506Z,28.20
2022-11-10T05:37:10.218Z,28.30
2022-11-10T05:39:39.724Z,28.40
2022-11-10T05:42:08.559Z,28.40
2022-11-10T05:44:37.292Z,28.40
2022-11-10T05:47:06.131Z,28.50
2022-11-10T05:49:34.844Z,28.50
2022-11-10T05:52:03.922Z,28.50
2022-11-10T05:54:32.635Z,28.60
2022-11-10T05:57:02.033Z,28.60
2022-11-10T05:59:30.829Z,28.60
2022-11-10T06:01:59.617Z,28.60
2022-11-10T06:04:28.321Z,28.60
2022-11-10T06:06:57.132Z,28.60
2022-11-10T06:09:25.849Z,28.60
2022-11-10T06:11:54.627Z,28.60
2022-11-10T06:14:23.788Z,28.70
2022-11-10T06:16:53.419Z,28.70
2022-11-10T06:19:22.219Z,28.70
2022-11-10T06:21:55.420Z,28.70
2022-11-10T06:24:27.657Z,28.80
2022-11-10T06:26:56.317Z,28.80
2022-11-10T06:29:26.893Z,28.80
2022-11-10T06:31:55.905Z,28.80
2022-11-10T06:34:24.775Z,28.80
2022-11-10T06:36:53.495Z,28.80
2022-11-10T06:39:22.169Z,28.90
2022-11-10T06:41:50.963Z,29.00
2022-11-10T06:44:19.702Z,29.00
2022-11-10T06:46:48.483Z,29.10
2022-11-10T06:49:17.194Z,29.20
2022-11-10T06:51:46.411Z,29.20
2022-11-10T06:54:15.177Z,29.20
2022-11-10T06:56:44.071Z,29.20
2022-11-10T06:59:12.876Z,29.20
2022-11-10T07:01:44.514Z,29.20
2022-11-10T07:04:19.786Z,29.20
2022-11-10T07:06:49.898Z,29.20
2022-11-10T07:09:18.882Z,29.20
2022-11-10T07:11:47.690Z,29.20
2022-11-10T07:14:16.445Z,29.20
2022-11-10T07:16:45.528Z,29.20
2022-11-10T07:19:14.280Z,29.30
2022-11-10T07:21:44.050Z,29.30
2022-11-10T07:24:12.979Z,29.40
2022-11-10T07:26:41.969Z,29.40
2022-11-10T07:29:10.784Z,29.50
2022-11-10T07:31:39.513Z,29.50
2022-11-10T07:34:08.311Z,29.40
2022-11-10T07:36:37.025Z,29.50
2022-11-10T07:39:05.829Z,29.40
2022-11-10T07:41:34.884Z,29.50
2022-11-10T07:44:03.893Z,29.50
2022-11-10T07:46:32.624Z,29.50
2022-11-10T07:49:01.411Z,29.50
2022-11-10T07:51:31.872Z,29.50
2022-11-10T07:54:00.670Z,29.50
2022-11-10T07:56:29.925Z,29.50
2022-11-10T07:58:58.692Z,29.50
2022-11-10T08:01:27.536Z,29.50
2022-11-10T08:03:56.525Z,29.50
2022-11-10T08:06:25.350Z,29.50
2022-11-10T08:08:54.232Z,29.40
2022-11-10T08:11:24.273Z,29.40
2022-11-10T08:13:53.795Z,29.40
2022-11-10T08:16:22.644Z,29.40
2022-11-10T08:18:51.469Z,29.40
2022-11-10T08:21:20.252Z,29.40
2022-11-10T08:23:48.986Z,29.40
2022-11-10T08:26:18.919Z,29.40
2022-11-10T08:28:47.993Z,29.40
2022-11-10T08:31:16.864Z,29.30
2022-11-10T08:33:46.871Z,29.30
2022-11-10T08:36:18.289Z,29.30
2022-11-10T08:38:47.129Z,29.30
2022-11-10T08:41:16.936Z,29.30
2022-11-10T08:43:45.766Z,29.30
2022-11-10T08:46:14.510Z,29.30
2022-11-10T08:48:44.036Z,29.30
2022-11-10T08:51:13.387Z,29.30
2022-11-10T08:53:42.249Z,29.20
2022-11-10T08:56:11.202Z,29.20
2022-11-10T08:58:47.438Z,29.20
2022-11-10T09:01:19.256Z,29.20
2022-11-10T09:03:47.991Z,29.30
2022-11-10T09:06:16.777Z,29.20
2022-11-10T09:08:45.673Z,29.20
2022-11-10T09:11:14.436Z,29.20
2022-11-10T09:13:43.237Z,29.20
2022-11-10T09:16:12.113Z,29.20
2022-11-10T09:18:40.909Z,29.20
2022-11-10T09:21:12.923Z,29.20
2022-11-10T09:23:43.320Z,29.20
2022-11-10T09:26:12.825Z,29.20
2022-11-10T09:28:41.585Z,29.20
2022-11-10T09:31:10.350Z,29.10
2022-11-10T09:33:39.138Z,29.10
2022-11-10T09:36:08.228Z,29.10
2022-11-10T09:38:37.287Z,29.10
2022-11-10T09:41:09.623Z,29.00
2022-11-10T09:43:50.008Z,29.00
2022-11-10T09:46:25.644Z,29.00
2022-11-10T09:49:00.559Z,29.00
2022-11-10T09:51:37.164Z,28.90
2022-11-10T09:54:32.277Z,28.90
2022-11-10T09:57:02.464Z,28.90
2022-11-10T09:59:33.653Z,28.90
2022-11-10T10:02:04.286Z,28.80
2022-11-10T10:04:54.243Z,28.80
2022-11-10T10:07:28.299Z,28.70
2022-11-10T10:10:23.543Z,28.70
2022-11-10T10:13:27.941Z,28.60
2022-11-10T10:16:16.262Z,28.60
2022-11-10T10:19:04.998Z,28.50
2022-11-10T10:21:46.707Z,28.50
2022-11-10T10:24:21.753Z,28.40
2022-11-10T10:26:57.130Z,28.30
2022-11-10T10:29:38.611Z,28.30
2022-11-10T10:32:13.181Z,28.20
2022-11-10T10:34:43.453Z,28.20
2022-11-10T10:37:39.853Z,28.10
2022-11-10T10:40:16.003Z,28.00
2022-11-10T10:42:44.825Z,28.00
2022-11-10T10:45:20.217Z,27.90
2022-11-10T10:47:51.666Z,27.80
2022-11-10T10:50:38.119Z,27.70
2022-11-10T10:53:08.869Z,27.70
2022-11-10T10:55:38.441Z,27.60
2022-11-10T10:58:21.041Z,27.60
2022-11-10T11:00:52.737Z,27.50
2022-11-10T11:03:27.911Z,27.50
2022-11-10T11:06:07.708Z,27.40
2022-11-10T11:08:36.520Z,27.40
2022-11-10T11:11:11.122Z,27.30
2022-11-10T11:13:40.003Z,27.30
2022-11-10T11:16:13.240Z,27.30
2022-11-10T11:18:42.392Z,27.20
2022-11-10T11:21:36.034Z,27.20
2022-11-10T11:24:16.448Z,27.20
2022-11-10T11:27:02.947Z,27.10
2022-11-10T11:29:33.636Z,27.10
2022-11-10T11:32:10.925Z,27.00
2022-11-10T11:35:04.971Z,27.00
2022-11-10T11:38:01.749Z,26.90
2022-11-10T11:40:51.638Z,27.00
2022-11-10T11:43:29.906Z,26.90
2022-11-10T11:46:12.491Z,26.90
2022-11-10T11:48:45.630Z,26.80
2022-11-10T11:51:30.404Z,26.80
2022-11-10T11:54:38.340Z,26.80
2022-11-10T11:57:19.300Z,26.80
2022-11-10T11:59:53.566Z,26.80
2022-11-10T12:02:51.527Z,26.70
2022-11-10T12:05:45.156Z,26.70
2022-11-10T12:08:30.293Z,26.70
2022-11-10T12:11:19.142Z,26.60
2022-11-10T12:13:58.830Z,26.60
2022-11-10T12:16:33.142Z,26.60
2022-11-10T12:19:29.830Z,26.50
2022-11-10T12:22:08.845Z,26.50
2022-11-10T12:24:50.024Z,26.40
2022-11-10T12:27:41.134Z,26.40
2022-11-10T12:30:15.544Z,26.40
2022-11-10T12:32:51.908Z,26.30
2022-11-10T12:35:29.160Z,26.30
2022-11-10T12:38:07.149Z,26.30
2022-11-10T12:40:42.137Z,26.20
2022-11-10T12:43:19.821Z,26.20
2022-11-10T12:45:57.692Z,26.20
2022-11-10T12:48:30.126Z,26.10
2022-11-10T12:50:59.730Z,26.10
2022-11-10T12:53:34.033Z,26.00
2022-11-10T12:56:16.337Z,26.00
2022-11-10T12:58:45.215Z,25.90
2022-11-10T13:01:19.664Z,25.90
2022-11-10T13:03:59.972Z,25.80
2022-11-10T13:06:34.654Z,25.80
2022-11-10T13:09:04.077Z,25.80
2022-11-10T13:11:41.424Z,25.80
2022-11-10T13:14:30.312Z,25.80
2022-11-10T13:16:59.143Z,25.70
2022-11-10T13:19:35.664Z,25.70
2022-11-10T13:22:06.569Z,25.70
2022-11-10T13:24:38.140Z,25.70
2022-11-10T13:27:15.569Z,25.60
2022-11-10T13:29:47.372Z,25.60
2022-11-10T13:32:17.020Z,25.60
2022-11-10T13:34:47.426Z,25.60
2022-11-10T13:37:36.228Z,25.60
2022-11-10T13:40:25.487Z,25.60
2022-11-10T13:43:02.700Z,25.60
2022-11-10T13:45:37.355Z,25.60
2022-11-10T13:48:32.830Z,25.60
2022-11-10T13:51:27.068Z,25.60
2022-11-10T13:54:28.357Z,25.60
2022-11-10T13:57:17.550Z,25.60
2022-11-10T13:59:57.607Z,25.60
2022-11-10T14:02:49.484Z,25.60
2022-11-10T14:05:39.687Z,25.60
2022-11-10T14:08:15.809Z,25.60
2022-11-10T14:11:08.905Z,25.60
2022-11-10T14:13:44.197Z,25.60
2022-11-10T14:16:18.751Z,25.60
2022-11-10T14:19:03.271Z,25.60
2022-11-10T14:21:47.653Z,25.60
2022-11-10T14:24:32.884Z,25.60
2022-11-10T14:27:08.401Z,25.60
2022-11-10T14:29:40.315Z,25.60
2022-11-10T14:32:19.181Z,25.60
2022-11-10T14:34:51.392Z,25.60
2022-11-10T14:37:24.959Z,25.60
2022-11-10T14:39:57.055Z,25.60
2022-11-10T14:42:32.961Z,25.60
2022-11-10T14:45:18.324Z,25.50
2022-11-10T14:47:55.053Z,25.60
2022-11-10T14:50:27.374Z,25.60
2022-11-10T14:53:02.545Z,25.60
2022-11-10T14:55:35.257Z,25.60
2022-11-10T14:58:27.455Z,25.50
2022-11-10T15:00:57.613Z,25.50
2022-11-10T15:03:37.780Z,25.50
2022-11-10T15:06:12.361Z,25.50
2022-11-10T15:08:45.897Z,25.60
2022-11-10T15:11:35.777Z,25.50
2022-11-10T15:14:04.625Z,25.50
2022-11-10T15:16:37.656Z,25.50
2022-11-10T15:19:30.503Z,25.50
2022-11-10T15:22:09.223Z,25.50
2022-11-10T15:24:41.875Z,25.50
2022-11-10T15:27:28.746Z,25.50
2022-11-10T15:30:00.579Z,25.40
2022-11-10T15:32:41.955Z,25.40
2022-11-10T15:35:29.042Z,25.40
2022-11-10T15:38:03.235Z,25.30
2022-11-10T15:40:37.276Z,25.30
2022-11-10T15:43:16.288Z,25.30
2022-11-10T15:45:47.721Z,25.30
2022-11-10T15:48:19.072Z,25.30
2022-11-10T15:50:52.263Z,25.30
2022-11-10T15:53:32.770Z,25.30
2022-11-10T15:56:01.632Z,25.30
2022-11-10T15:58:30.488Z,25.20
2022-11-10T16:00:59.379Z,25.20
2022-11-10T16:03:28.901Z,25.20
2022-11-10T16:05:57.628Z,25.20
2022-11-10T16:08:26.939Z,25.20
2022-11-10T16:10:58.524Z,25.20
2022-11-10T16:13:30.731Z,25.20
2022-11-10T16:16:01.085Z,25.20
2022-11-10T16:18:32.365Z,25.20
2022-11-10T16:21:01.315Z,25.10
2022-11-10T16:23:30.133Z,25.10
2022-11-10T16:25:59.596Z,25.10
2022-11-10T16:28:30.198Z,25.10
2022-11-10T16:30:59.811Z,25.10
2022-11-10T16:33:30.108Z,25.00
2022-11-10T16:35:58.896Z,25.00
2022-11-10T16:38:31.748Z,25.00
2022-11-10T16:41:02.242Z,25.00
2022-11-10T16:43:32.797Z,24.90
2022-11-10T16:46:05.433Z,24.90
2022-11-10T16:48:36.796Z,24.90
2022-11-10T16:51:06.784Z,24.80
2022-11-10T16:53:35.906Z,24.80
2022-11-10T16:56:04.639Z,24.70
2022-11-10T16:58:33.363Z,24.70
2022-11-10T17:01:36.314Z,24.60
2022-11-10T17:04:11.516Z,24.60
2022-11-10T17:06:40.388Z,24.50
2022-11-10T17:09:20.254Z,24.50
2022-11-10T17:11:48.988Z,24.50
2022-11-10T17:14:18.793Z,24.50
2022-11-10T17:16:48.457Z,24.40
2022-11-10T17:19:24.410Z,24.40
2022-11-10T17:21:54.957Z,24.40
2022-11-10T17:24:23.877Z,24.30
2022-11-10T17:26:52.726Z,24.30
2022-11-10T17:29:22.942Z,24.20
2022-11-10T17:31:51.606Z,24.10
2022-11-10T17:34:20.432Z,24.10
2022-11-10T17:36:51.709Z,24.10
2022-11-10T17:39:20.952Z,24.20
2022-11-10T17:41:49.894Z,24.10
2022-11-10T17:44:18.836Z,24.10
2022-11-10T17:46:47.599Z,24.10
2022-11-10T17:49:16.392Z,24.10
2022-11-10T17:51:45.422Z,24.00
2022-11-10T17:54:16.832Z,24.00
2022-11-10T17:56:45.557Z,24.00
2022-11-10T17:59:14.199Z,24.00
2022-11-10T18:01:42.981Z,24.00
2022-11-10T18:04:15.659Z,24.00
2022-11-10T18:06:45.088Z,23.90
2022-11-10T18:09:13.838Z,23.90
2022-11-10T18:11:42.468Z,23.80
2022-11-10T18:14:13.397Z,23.90
2022-11-10T18:16:42.815Z,23.80
2022-11-10T18:19:12.463Z,23.90
2022-11-10T18:21:41.160Z,23.90
2022-11-10T18:24:09.938Z,23.90
2022-11-10T18:26:38.619Z,23.90
2022-11-10T18:29:07.309Z,23.90
2022-11-10T18:31:36.011Z,23.90
2022-11-10T18:34:04.693Z,23.80
2022-11-10T18:36:33.392Z,23.80
2022-11-10T18:39:02.163Z,23.80
2022-11-10T18:41:50.445Z,23.80
2022-11-10T18:44:19.873Z,23.80
2022-11-10T18:46:50.178Z,23.90
2022-11-10T18:49:19.424Z,23.80
2022-11-10T18:51:48.175Z,23.80
2022-11-10T18:54:16.900Z,23.80
2022-11-10T18:56:45.607Z,23.80
2022-11-10T18:59:15.422Z,23.80
2022-11-10T19:01:44.217Z,23.80
2022-11-10T19:04:14.083Z,23.80
2022-11-10T19:06:42.955Z,23.80
2022-11-10T19:09:13.344Z,23.80
2022-11-10T19:11:42.080Z,23.80
2022-11-10T19:14:10.753Z,23.80
2022-11-10T19:16:39.463Z,23.80
2022-11-10T19:19:08.182Z,23.90
2022-11-10T19:21:36.897Z,23.90
2022-11-10T19:24:05.981Z,23.90
2022-11-10T19:26:34.910Z,23.90
2022-11-10T19:29:03.738Z,23.90
2022-11-10T19:31:32.448Z,23.90
2022-11-10T19:34:01.201Z,23.90
2022-11-10T19:36:30.463Z,23.90
2022-11-10T19:38:59.277Z,23.90
2022-11-10T19:41:30.324Z,23.90
2022-11-10T19:44:01.326Z,24.00
2022-11-10T19:46:33.271Z,23.90
2022-11-10T19:49:02.020Z,23.90
2022-11-10T19:51:30.809Z,24.00
2022-11-10T19:54:02.772Z,24.00
2022-11-10T19:56:35.148Z,24.00
2022-11-10T19:59:03.896Z,24.00
2022-11-10T20:01:34.278Z,24.00
2022-11-10T20:04:03.947Z,24.00
2022-11-10T20:06:32.745Z,23.90
2022-11-10T20:09:01.497Z,23.90
2022-11-10T20:11:30.575Z,23.90
2022-11-10T20:14:01.527Z,23.90
2022-11-10T20:16:30.278Z,23.90
2022-11-10T20:18:59.006Z,23.90
2022-11-10T20:21:27.691Z,23.90
2022-11-10T20:23:58.029Z,23.90
2022-11-10T20:26:27.017Z,23.90
2022-11-10T20:28:55.691Z,23.90
2022-11-10T20:31:26.962Z,24.00
2022-11-10T20:33:57.351Z,24.00
2022-11-10T20:36:30.035Z,23.90
2022-11-10T20:39:01.471Z,23.90
2022-11-10T20:41:33.876Z,24.00
2022-11-10T20:44:02.559Z,23.90
2022-11-10T20:46:53.406Z,23.90
2022-11-10T20:49:20.124Z,23.90
2022-11-10T20:51:48.835Z,23.90
2022-11-10T20:54:18.341Z,23.90
2022-11-10T20:56:47.089Z,23.90
2022-11-10T20:59:15.783Z,23.90
2022-11-10T21:01:44.529Z,23.90
2022-11-10T21:04:13.876Z,23.90
2022-11-10T21:06:42.596Z,23.90
2022-11-10T21:09:11.455Z,23.90
2022-11-10T21:12:00.218Z,23.90
2022-11-10T21:14:28.956Z,23.90
2022-11-10T21:16:58.770Z,23.90
2022-11-10T21:19:27.626Z,23.80
2022-11-10T21:21:56.266Z,23.80
2022-11-10T21:24:24.928Z,23.80
2022-11-10T21:26:54.458Z,23.80
2022-11-10T21:29:23.321Z,23.80
2022-11-10T21:31:52.093Z,23.80
2022-11-10T21:34:20.849Z,23.70
2022-11-10T21:36:49.491Z,23.70
2022-11-10T21:39:18.115Z,23.70
2022-11-10T21:41:47.117Z,23.60
2022-11-10T21:44:15.814Z,23.70
2022-11-10T21:46:44.623Z,23.60
2022-11-10T21:49:13.330Z,23.60
2022-11-10T21:51:41.981Z,23.60
2022-11-10T21:54:13.251Z,23.60
2022-11-10T21:56:41.924Z,23.60
2022-11-10T21:59:10.217Z,23.60
2022-11-10T22:01:39.009Z,23.60
2022-11-10T22:04:07.789Z,23.50
2022-11-10T22:06:56.058Z,23.50
2022-11-10T22:09:44.374Z,23.50
2022-11-10T22:12:34.295Z,23.50
2022-11-10T22:15:22.578Z,23.50
2022-11-10T22:18:10.839Z,23.50
2022-11-10T22:20:39.576Z,23.50
2022-11-10T22:23:08.198Z,23.50
2022-11-10T22:25:36.830Z,23.50
2022-11-10T22:28:05.957Z,23.50
2022-11-10T22:30:34.816Z,23.50
2022-11-10T22:33:23.485Z,23.50
2022-11-10T22:35:58.856Z,23.40
2022-11-10T22:38:27.867Z,23.50
2022-11-10T22:41:19.154Z,23.50
2022-11-10T22:44:07.665Z,23.40
2022-11-10T22:46:39.218Z,23.50
2022-11-10T22:49:10.656Z,23.50
2022-11-10T22:51:40.485Z,23.50
2022-11-10T22:54:12.992Z,23.50
2022-11-10T22:56:43.353Z,23.50
2022-11-10T22:59:13.031Z,23.50
2022-11-10T23:01:44.050Z,23.40
2022-11-10T23:04:13.670Z,23.40
2022-11-10T23:06:42.370Z,23.40
2022-11-10T23:09:11.009Z,23.40
2022-11-10T23:11:39.698Z,23.40
2022-11-10T23:14:08.428Z,23.40
2022-11-10T23:16:37.426Z,23.40
2022-11-10T23:19:06.169Z,23.40
2022-11-10T23:21:34.849Z,23.40
2022-11-10T23:24:03.481Z,23.40
2022-11-10T23:26:32.473Z,23.40
2022-11-10T23:29:01.129Z,23.40
2022-11-10T23:31:29.885Z,23.40
2022-11-10T23:33:58.969Z,23.40
2022-11-10T23:36:28.787Z,23.40
2022-11-10T23:38:57.616Z,23.40
2022-11-10T23:41:27.114Z,23.40
2022-11-10T23:43:55.933Z,23.40
2022-11-10T23:46:24.679Z,23.40
2022-11-10T23:48:53.419Z,23.40
2022-11-10T23:51:22.197Z,23.40
2022-11-10T23:53:50.877Z,23.30
2022-11-10T23:56:19.522Z,23.30
2022-11-10T23:58:48.207Z,23.40
